Time;durP1;ratioP1;P1;durP2;ratioP2;P2;SDS_P1;SDS_P2;PMS_P1;PMS_P2;Temp;Humidity;BMP_temperature;BMP_pressure;BME280_temperature;BME280_humidity;BME280_pressure;Samples;Min_cycle;Max_cycle;Signal;HPM_P1;HPM_P2
2020/12/22 00:01:11;;;;;;;90.72;38.65;;;0.90;99.90;;;;;;5074955;28;20020;-81
2020/12/22 00:03:37;;;;;;;95.40;43.13;;;0.90;99.90;;;;;;5056893;28;20505;-81
2020/12/22 00:06:02;;;;;;;93.25;43.22;;;0.90;99.90;;;;;;5056894;28;20395;-81
2020/12/22 00:08:28;;;;;;;97.25;42.15;;;0.80;99.90;;;;;;5056648;28;20078;-81
2020/12/22 00:10:54;;;;;;;89.65;41.72;;;0.80;99.90;;;;;;5074875;28;20024;-80
2020/12/22 00:13:19;;;;;;;101.95;44.67;;;0.60;99.90;;;;;;5074580;28;20486;-81
2020/12/22 00:15:45;;;;;;;81.45;37.20;;;0.70;99.90;;;;;;5074730;28;20020;-81
2020/12/22 00:18:11;;;;;;;92.32;39.03;;;0.60;99.90;;;;;;5074601;28;20032;-81
2020/12/22 00:20:37;;;;;;;87.13;39.92;;;0.60;99.90;;;;;;5074610;28;20039;-81
2020/12/22 00:23:03;;;;;;;93.38;38.88;;;0.60;99.90;;;;;;5056382;28;20489;-81
2020/12/22 00:25:29;;;;;;;101.60;42.70;;;0.50;99.90;;;;;;5056341;28;20031;-81
2020/12/22 00:27:55;;;;;;;97.95;41.42;;;0.50;99.90;;;;;;5056383;28;20017;-82
2020/12/22 00:30:20;;;;;;;87.20;41.83;;;0.50;99.90;;;;;;5074350;28;20102;-81
2020/12/22 00:32:46;;;;;;;96.97;43.55;;;0.50;99.90;;;;;;5056298;28;20036;-81
2020/12/22 00:35:12;;;;;;;95.00;42.58;;;0.40;99.90;;;;;;5074307;28;20036;-81
2020/12/22 00:37:37;;;;;;;105.15;43.58;;;0.40;99.90;;;;;;5074140;28;20082;-82
2020/12/22 00:40:04;;;;;;;97.40;43.00;;;0.40;99.90;;;;;;5056339;28;20024;-81
2020/12/22 00:42:34;;;;;;;100.03;43.47;;;0.40;99.90;;;;;;5056072;28;20426;-81
2020/12/22 00:45:00;;;;;;;101.90;44.78;;;0.40;99.90;;;;;;5056149;28;20553;-81
2020/12/22 00:47:25;;;;;;;103.28;44.63;;;0.40;99.90;;;;;;5073996;28;20068;-81
2020/12/22 00:49:51;;;;;;;100.20;42.05;;;0.30;99.90;;;;;;5074138;28;20021;-81
2020/12/22 00:52:17;;;;;;;92.90;43.38;;;0.30;99.90;;;;;;5055902;28;20012;-81
2020/12/22 00:54:43;;;;;;;104.72;41.83;;;0.30;99.90;;;;;;5073898;28;20021;-81
2020/12/22 00:57:09;;;;;;;93.47;43.30;;;0.20;99.90;;;;;;5055963;28;20025;-81
2020/12/22 00:59:37;;;;;;;92.40;43.22;;;0.20;99.90;;;;;;5055885;28;20421;-82
2020/12/22 01:02:07;;;;;;;89.03;40.72;;;0.20;99.90;;;;;;5055817;28;20020;-82
2020/12/22 01:04:33;;;;;;;103.40;45.53;;;0.10;99.90;;;;;;5073073;28;20064;-82
2020/12/22 01:06:58;;;;;;;93.50;41.35;;;0.10;99.90;;;;;;5055517;28;20063;-82
2020/12/22 01:09:24;;;;;;;110.85;46.08;;;0.10;99.90;;;;;;5055740;28;20154;-81
2020/12/22 01:11:50;;;;;;;96.80;41.20;;;0.00;99.90;;;;;;5073515;28;20035;-81
2020/12/22 01:14:16;;;;;;;101.13;45.72;;;0.00;99.90;;;;;;5055485;28;20032;-81
2020/12/22 01:16:41;;;;;;;115.20;49.90;;;0.00;99.90;;;;;;5073434;28;20389;-81
2020/12/22 01:19:07;;;;;;;98.55;43.97;;;0.00;99.90;;;;;;5055518;28;20016;-81
2020/12/22 01:21:34;;;;;;;99.50;41.97;;;0.00;99.90;;;;;;5073331;28;20020;-81
2020/12/22 01:24:00;;;;;;;90.75;41.28;;;0.00;99.90;;;;;;5055237;28;20028;-81
2020/12/22 01:26:27;;;;;;;93.05;41.05;;;-0.10;99.90;;;;;;5055395;28;20029;-82
2020/12/22 01:28:54;;;;;;;94.07;40.97;;;-0.10;99.90;;;;;;5055265;28;20432;-82
2020/12/22 01:31:24;;;;;;;103.55;43.83;;;-0.10;99.90;;;;;;5054368;28;20066;-81
2020/12/22 01:33:50;;;;;;;102.65;44.75;;;-0.10;99.90;;;;;;5054995;28;20017;-81
2020/12/22 01:36:17;;;;;;;94.00;42.50;;;-0.10;99.90;;;;;;5073042;28;20036;-82
2020/12/22 01:38:43;;;;;;;83.25;39.35;;;-0.10;99.90;;;;;;5055163;28;20059;-81
2020/12/22 01:41:09;;;;;;;82.97;38.65;;;-0.10;99.90;;;;;;5073132;28;20029;-82
2020/12/22 01:43:34;;;;;;;83.72;38.63;;;-0.10;99.90;;;;;;5054915;28;20027;-82
2020/12/22 01:46:00;;;;;;;92.40;41.28;;;-0.20;99.90;;;;;;5072829;28;20539;-81
2020/12/22 01:48:27;;;;;;;89.68;40.72;;;-0.30;99.90;;;;;;5072964;28;20017;-81
2020/12/22 01:50:53;;;;;;;95.32;41.10;;;-0.30;99.90;;;;;;5055015;28;20032;-81
2020/12/22 01:53:19;;;;;;;93.88;42.50;;;-0.30;99.90;;;;;;5072894;28;20029;-81
2020/12/22 01:55:44;;;;;;;103.75;43.53;;;-0.30;99.90;;;;;;5054996;28;20105;-81
2020/12/22 01:58:10;;;;;;;90.68;40.22;;;-0.40;99.90;;;;;;5054894;28;20020;-81
2020/12/22 02:00:36;;;;;;;76.10;38.13;;;-0.50;99.90;;;;;;5054947;28;20359;-81
2020/12/22 02:03:05;;;;;;;79.47;36.35;;;-0.50;99.90;;;;;;5072784;28;20025;-81
2020/12/22 02:05:33;;;;;;;86.47;41.67;;;-0.50;99.90;;;;;;5054730;28;20115;-81
2020/12/22 02:08:00;;;;;;;82.85;37.67;;;-0.50;99.90;;;;;;5054752;28;20119;-82
2020/12/22 02:10:26;;;;;;;81.38;36.97;;;-0.50;99.90;;;;;;5072801;28;20020;-81
2020/12/22 02:12:51;;;;;;;82.25;37.55;;;-0.50;99.90;;;;;;5054751;28;20032;-81
2020/12/22 02:15:17;;;;;;;78.88;35.75;;;-0.50;99.90;;;;;;5072977;28;20036;-81
2020/12/22 02:17:44;;;;;;;70.18;35.53;;;-0.60;99.90;;;;;;5058327;28;20020;-81
2020/12/22 02:20:10;;;;;;;72.50;34.10;;;-0.70;99.90;;;;;;5076803;28;20033;-81
2020/12/22 02:22:36;;;;;;;85.80;35.17;;;-0.70;99.90;;;;;;5058787;28;20561;-82
2020/12/22 02:25:01;;;;;;;100.80;42.25;;;-0.70;99.90;;;;;;5058689;28;20025;-81
2020/12/22 02:27:27;;;;;;;84.50;38.58;;;-0.70;99.90;;;;;;5076627;28;20078;-81
2020/12/22 02:29:53;;;;;;;84.95;39.97;;;-0.70;99.90;;;;;;5058429;28;20028;-81
2020/12/22 02:32:18;;;;;;;92.15;37.03;;;-0.70;99.90;;;;;;5076508;28;20029;-81
2020/12/22 02:34:44;;;;;;;88.63;37.58;;;-0.80;99.90;;;;;;5058727;28;20065;-81
2020/12/22 02:37:10;;;;;;;82.63;36.95;;;-0.70;99.90;;;;;;5058520;28;20469;-81
2020/12/22 02:39:35;;;;;;;80.25;35.55;;;-0.70;99.90;;;;;;5076502;28;20031;-81
2020/12/22 02:42:01;;;;;;;78.85;35.33;;;-0.70;99.90;;;;;;5076419;28;20389;-81
2020/12/22 02:44:27;;;;;;;80.88;36.97;;;-0.70;99.90;;;;;;5076007;28;20493;-82
2020/12/22 02:46:53;;;;;;;82.70;38.08;;;-0.70;99.90;;;;;;5058370;28;20025;-82
2020/12/22 02:49:19;;;;;;;81.28;36.08;;;-0.70;99.90;;;;;;5058310;28;20493;-81
2020/12/22 02:51:44;;;;;;;84.18;36.55;;;-0.70;99.90;;;;;;5058263;28;20486;-81
2020/12/22 02:54:10;;;;;;;82.35;36.47;;;-0.70;99.90;;;;;;5076262;28;20032;-81
2020/12/22 02:56:36;;;;;;;80.47;38.15;;;-0.70;99.90;;;;;;5057796;28;20476;-81
2020/12/22 02:59:01;;;;;;;74.97;34.40;;;-0.80;99.90;;;;;;5076087;28;20481;-81
2020/12/22 03:01:27;;;;;;;74.35;34.13;;;-0.80;99.90;;;;;;5058046;28;20055;-81
2020/12/22 03:03:53;;;;;;;76.88;33.25;;;-0.80;99.90;;;;;;5075676;28;20394;-80
2020/12/22 03:06:18;;;;;;;73.90;32.40;;;-0.80;99.90;;;;;;5058118;28;20017;-81
2020/12/22 03:08:44;;;;;;;66.00;32.58;;;-0.80;99.90;;;;;;5075899;28;20020;-81
2020/12/22 03:11:10;;;;;;;76.40;34.30;;;-0.80;99.90;;;;;;5075898;28;20036;-81
2020/12/22 03:13:35;;;;;;;74.18;33.58;;;-0.80;99.90;;;;;;5075679;28;20029;-81
2020/12/22 03:16:01;;;;;;;62.47;30.58;;;-0.80;99.90;;;;;;5057672;28;20029;-81
2020/12/22 03:18:27;;;;;;;74.00;34.78;;;-0.80;99.90;;;;;;5056413;28;20024;-81
2020/12/22 03:20:52;;;;;;;62.83;32.63;;;-0.80;99.90;;;;;;5056035;28;20021;-81
2020/12/22 03:23:18;;;;;;;72.22;34.75;;;-0.90;99.90;;;;;;5075340;28;20029;-82
2020/12/22 03:25:44;;;;;;;73.05;33.78;;;-0.90;99.90;;;;;;5075659;28;20028;-82
2020/12/22 03:28:10;;;;;;;74.20;35.22;;;-0.90;99.90;;;;;;5074831;28;20386;-82
2020/12/22 03:30:36;;;;;;;73.97;34.15;;;-1.00;99.90;;;;;;5075563;28;20398;-82
2020/12/22 03:33:01;;;;;;;77.63;33.95;;;-0.90;99.90;;;;;;5056129;28;20028;-81
2020/12/22 03:35:27;;;;;;;80.80;34.45;;;-1.00;99.90;;;;;;5073754;28;20090;-81
2020/12/22 03:37:52;;;;;;;82.13;33.03;;;-1.00;99.90;;;;;;5055364;28;20054;-81
2020/12/22 03:40:20;;;;;;;73.82;33.00;;;-1.00;99.90;;;;;;5073295;28;20024;-81
2020/12/22 03:42:46;;;;;;;70.88;32.00;;;-1.10;99.90;;;;;;5056117;28;20017;-80
2020/12/22 03:45:11;;;;;;;73.72;35.50;;;-1.10;99.90;;;;;;5056905;28;20028;-82
2020/12/22 03:47:37;;;;;;;95.47;38.67;;;-1.10;99.90;;;;;;5074211;28;20039;-81
2020/12/22 03:50:03;;;;;;;94.53;38.67;;;-1.00;99.90;;;;;;5056534;28;20063;-81
2020/12/22 03:52:29;;;;;;;87.55;36.03;;;-1.10;99.90;;;;;;5074071;28;20401;-82
2020/12/22 03:54:55;;;;;;;79.75;35.13;;;-1.00;99.90;;;;;;5056232;28;20017;-81
2020/12/22 03:57:20;;;;;;;87.45;37.35;;;-1.00;99.90;;;;;;5056085;28;20028;-81
2020/12/22 03:59:46;;;;;;;88.40;40.17;;;-1.00;99.90;;;;;;5056388;28;20477;-80
2020/12/22 04:02:12;;;;;;;97.95;40.60;;;-1.10;99.90;;;;;;5054562;28;20040;-81
2020/12/22 04:04:38;;;;;;;153.40;56.72;;;-1.00;99.90;;;;;;5054415;28;20036;-81
2020/12/22 04:07:04;;;;;;;227.45;75.72;;;-1.00;99.90;;;;;;5054726;28;20505;-81
2020/12/22 04:09:30;;;;;;;249.50;83.13;;;-1.00;99.90;;;;;;5054331;28;20029;-81
2020/12/22 04:11:55;;;;;;;247.85;77.53;;;-1.00;99.90;;;;;;5072665;28;20031;-81
2020/12/22 04:14:22;;;;;;;264.38;89.68;;;-1.00;99.90;;;;;;5054649;28;20059;-81
2020/12/22 04:16:48;;;;;;;156.35;57.97;;;-1.00;99.90;;;;;;5073540;28;20024;-81
2020/12/22 04:19:15;;;;;;;112.13;44.55;;;-1.00;99.90;;;;;;5056632;28;20023;-81
2020/12/22 04:21:41;;;;;;;85.43;37.33;;;-1.00;99.90;;;;;;5074499;28;20062;-81
2020/12/22 04:24:07;;;;;;;83.55;36.03;;;-1.00;99.90;;;;;;5056390;28;20048;-81
2020/12/22 04:26:34;;;;;;;72.32;34.17;;;-1.00;99.90;;;;;;5072061;28;20369;-81
2020/12/22 04:29:00;;;;;;;88.32;38.50;;;-1.00;99.90;;;;;;5073405;28;20033;-81
2020/12/22 04:31:26;;;;;;;115.28;45.25;;;-0.90;99.90;;;;;;5070645;28;20500;-81
2020/12/22 04:33:53;;;;;;;104.20;44.05;;;-1.00;99.90;;;;;;5055575;28;20024;-81
2020/12/22 04:36:19;;;;;;;103.75;42.60;;;-1.00;99.90;;;;;;5073143;28;20067;-82
2020/12/22 04:38:45;;;;;;;92.63;39.90;;;-1.00;99.90;;;;;;5072536;28;20032;-81
2020/12/22 04:41:13;;;;;;;108.38;43.63;;;-1.00;99.90;;;;;;5052719;28;20020;-82
2020/12/22 04:43:40;;;;;;;99.82;42.97;;;-0.90;99.90;;;;;;5071791;28;20020;-81
2020/12/22 04:46:07;;;;;;;151.38;54.92;;;-0.90;99.90;;;;;;5072053;28;20063;-82
2020/12/22 04:48:38;;;;;;;195.30;66.13;;;-0.80;99.90;;;;;;5053963;28;20385;-81
2020/12/22 04:51:07;;;;;;;196.00;63.25;;;-0.80;99.90;;;;;;5053963;28;20024;-81
2020/12/22 04:53:34;;;;;;;133.85;51.30;;;-0.80;99.90;;;;;;5072298;28;20032;-82
2020/12/22 04:56:02;;;;;;;124.25;48.85;;;-0.80;99.90;;;;;;5073456;28;20382;-81
2020/12/22 04:58:28;;;;;;;109.30;44.17;;;-0.70;99.90;;;;;;5055509;28;20028;-81
2020/12/22 05:00:58;;;;;;;102.43;40.83;;;-0.70;99.90;;;;;;5073713;28;20029;-81
2020/12/22 05:03:24;;;;;;;87.18;40.97;;;-0.60;99.90;;;;;;5055699;28;20028;-81
2020/12/22 05:05:51;;;;;;;79.28;37.80;;;-0.60;99.90;;;;;;5055769;28;20047;-81
2020/12/22 05:08:17;;;;;;;88.03;38.42;;;-0.60;99.90;;;;;;5055742;28;20032;-81
2020/12/22 05:10:44;;;;;;;82.18;34.95;;;-0.60;99.90;;;;;;5073643;28;20021;-81
2020/12/22 05:13:11;;;;;;;79.82;33.67;;;-0.50;99.90;;;;;;5073522;28;20055;-81
2020/12/22 05:15:43;;;;;;;92.85;40.13;;;-0.50;99.90;;;;;;5055580;28;20036;-81
2020/12/22 05:18:10;;;;;;;78.68;35.97;;;-0.50;99.90;;;;;;5055631;28;20465;-81
2020/12/22 05:20:45;;;;;;;70.70;33.25;;;-0.40;99.90;;;;;;5055496;28;20036;-82
2020/12/22 05:23:19;;;;;;;81.20;34.13;;;-0.40;99.90;;;;;;5055429;28;20027;-81
2020/12/22 05:25:46;;;;;;;78.28;34.03;;;-0.30;99.90;;;;;;5055442;28;20066;-81
2020/12/22 05:28:22;;;;;;;77.15;34.45;;;-0.30;99.90;;;;;;5055331;28;20017;-81
2020/12/22 05:30:50;;;;;;;77.75;34.60;;;-0.30;99.90;;;;;;5073314;28;20164;-81
2020/12/22 05:33:16;;;;;;;77.95;35.85;;;-0.30;99.90;;;;;;5055228;28;20553;-81
2020/12/22 05:35:48;;;;;;;74.13;35.30;;;-0.20;99.90;;;;;;5072723;28;20020;-81
2020/12/22 05:38:15;;;;;;;88.93;40.45;;;-0.20;99.90;;;;;;5054145;28;20020;-81
2020/12/22 05:40:42;;;;;;;96.50;40.03;;;-0.30;99.90;;;;;;5055178;28;20039;-81
2020/12/22 05:43:09;;;;;;;95.78;39.05;;;-0.30;99.90;;;;;;5055145;28;20442;-81
2020/12/22 05:45:36;;;;;;;103.65;39.85;;;-0.20;99.90;;;;;;5055134;28;20025;-81
2020/12/22 05:48:04;;;;;;;101.60;43.28;;;-0.30;99.90;;;;;;5055013;28;20111;-81
2020/12/22 05:50:29;;;;;;;112.28;47.08;;;-0.20;99.90;;;;;;5054792;28;20029;-81
2020/12/22 05:52:56;;;;;;;102.93;46.45;;;-0.20;99.90;;;;;;5088360;28;20036;-81
2020/12/22 05:55:30;;;;;;;99.78;44.35;;;-0.20;99.90;;;;;;5072897;28;20031;-82
2020/12/22 05:58:07;;;;;;;94.70;41.38;;;-0.20;99.90;;;;;;5072957;28;20036;-81
2020/12/22 06:00:33;;;;;;;84.38;36.15;;;-0.20;99.90;;;;;;5054832;28;20020;-82
2020/12/22 06:03:05;;;;;;;84.80;40.03;;;-0.10;99.90;;;;;;5072732;28;20028;-82
2020/12/22 06:05:38;;;;;;;75.65;37.28;;;-0.10;99.90;;;;;;5072763;28;20072;-81
2020/12/22 06:08:08;;;;;;;78.53;36.35;;;-0.10;99.90;;;;;;5072819;28;20031;-82
2020/12/22 06:10:35;;;;;;;86.53;37.88;;;-0.10;99.90;;;;;;5072685;28;20021;-82
2020/12/22 06:13:02;;;;;;;80.50;36.45;;;0.00;99.90;;;;;;5054693;28;20070;-82
2020/12/22 06:15:27;;;;;;;79.20;35.42;;;0.00;99.90;;;;;;5068529;28;20120;-82
2020/12/22 06:17:53;;;;;;;75.00;34.47;;;0.00;99.90;;;;;;5054685;28;20111;-81
2020/12/22 06:20:23;;;;;;;75.85;36.15;;;0.00;99.90;;;;;;5054533;28;20028;-80
2020/12/22 06:22:50;;;;;;;87.22;40.88;;;0.00;99.90;;;;;;5083871;28;20020;-81
2020/12/22 06:25:21;;;;;;;87.03;38.45;;;0.00;99.90;;;;;;5079155;28;20486;-81
2020/12/22 06:27:47;;;;;;;88.50;40.15;;;0.10;99.90;;;;;;5072401;28;20039;-82
2020/12/22 06:30:15;;;;;;;89.13;42.47;;;0.10;99.90;;;;;;5071258;28;20016;-82
2020/12/22 06:32:41;;;;;;;88.10;41.45;;;0.10;99.90;;;;;;5072496;28;20024;-81
2020/12/22 06:35:28;;;;;;;92.47;43.50;;;0.10;99.90;;;;;;5071826;28;20025;-82
2020/12/22 06:37:55;;;;;;;91.10;42.15;;;0.20;99.90;;;;;;5052482;28;20094;-82
2020/12/22 06:40:55;;;;;;;91.22;44.83;;;0.20;99.90;;;;;;5070473;28;20148;-83
2020/12/22 06:43:43;;;;;;;83.63;40.33;;;0.20;99.90;;;;;;5086386;28;20095;-83
2020/12/22 06:46:30;;;;;;;82.05;36.58;;;0.20;99.90;;;;;;5052329;28;20021;-82
2020/12/22 06:48:56;;;;;;;77.55;36.08;;;0.20;99.90;;;;;;5071552;28;20021;-82
2020/12/22 06:51:29;;;;;;;83.88;38.25;;;0.20;99.90;;;;;;5054074;28;20025;-82
2020/12/22 06:53:56;;;;;;;82.90;39.55;;;0.20;99.90;;;;;;5054313;28;20021;-82
2020/12/22 06:56:42;;;;;;;83.35;38.30;;;0.20;99.90;;;;;;5054280;28;20394;-81
2020/12/22 06:59:09;;;;;;;88.57;41.15;;;0.30;99.90;;;;;;5054217;28;20493;-81
2020/12/22 07:01:35;;;;;;;89.72;40.25;;;0.30;99.90;;;;;;5054070;28;20092;-81
2020/12/22 07:04:12;;;;;;;87.82;38.75;;;0.30;99.90;;;;;;5055611;28;20042;-81
2020/12/22 07:06:47;;;;;;;83.60;37.30;;;0.30;99.90;;;;;;5064543;28;20024;-82
2020/12/22 07:09:22;;;;;;;92.88;40.17;;;0.30;99.90;;;;;;5055399;28;20390;-81
2020/12/22 07:11:49;;;;;;;78.75;37.55;;;0.30;99.90;;;;;;5055833;28;20071;-81
2020/12/22 07:14:19;;;;;;;95.72;43.47;;;0.30;99.90;;;;;;5053215;28;20033;-81
2020/12/22 07:16:55;;;;;;;119.45;51.85;;;0.30;99.90;;;;;;5072026;28;20029;-81
2020/12/22 07:19:23;;;;;;;151.57;65.32;;;0.30;99.90;;;;;;5072523;28;20024;-81
2020/12/22 07:21:51;;;;;;;124.93;55.70;;;0.30;99.90;;;;;;5070861;28;20028;-80
2020/12/22 07:24:17;;;;;;;101.63;45.88;;;0.40;99.90;;;;;;5052758;28;20497;-81
2020/12/22 07:26:42;;;;;;;98.97;47.70;;;0.40;99.90;;;;;;5070199;28;20490;-80
2020/12/22 07:29:08;;;;;;;114.80;48.00;;;0.40;99.90;;;;;;5069592;28;20507;-82
2020/12/22 07:31:34;;;;;;;91.07;41.38;;;0.40;99.90;;;;;;5069040;28;20051;-80
2020/12/22 07:34:06;;;;;;;101.18;46.72;;;0.50;99.90;;;;;;5067431;28;20025;-81
2020/12/22 07:36:33;;;;;;;104.93;48.03;;;0.50;99.90;;;;;;5068374;28;20028;-80
2020/12/22 07:39:11;;;;;;;104.18;49.00;;;0.50;99.90;;;;;;5069789;28;20048;-81
2020/12/22 07:41:38;;;;;;;92.32;43.58;;;0.50;99.90;;;;;;5057209;28;20119;-81
2020/12/22 07:44:17;;;;;;;99.53;45.47;;;0.50;99.90;;;;;;5074473;28;20032;-81
2020/12/22 07:46:44;;;;;;;92.90;45.25;;;0.60;99.90;;;;;;5074727;28;20025;-81
2020/12/22 07:49:11;;;;;;;97.18;41.80;;;0.60;99.90;;;;;;5073710;28;20101;-81
2020/12/22 07:51:41;;;;;;;85.93;42.58;;;0.60;99.90;;;;;;5044926;28;20021;-81
2020/12/22 07:54:08;;;;;;;87.60;41.25;;;0.70;99.90;;;;;;5065676;28;20478;-82
2020/12/22 07:56:35;;;;;;;97.97;44.20;;;0.70;99.90;;;;;;5067940;28;20102;-82
2020/12/22 07:59:03;;;;;;;86.22;40.03;;;0.70;99.90;;;;;;5069747;28;20033;-82
2020/12/22 08:01:48;;;;;;;98.95;42.85;;;0.70;99.90;;;;;;5052553;28;20481;-81
2020/12/22 08:04:25;;;;;;;95.72;42.55;;;0.70;99.90;;;;;;5071333;28;20421;-81
2020/12/22 08:06:59;;;;;;;96.45;44.42;;;0.80;99.90;;;;;;5052243;28;20036;-80
2020/12/22 08:09:34;;;;;;;113.07;52.42;;;0.80;99.90;;;;;;5051604;28;20093;-81
2020/12/22 08:12:06;;;;;;;89.53;47.13;;;0.80;99.90;;;;;;5046877;28;20029;-82
2020/12/22 08:14:36;;;;;;;80.63;36.42;;;0.80;99.90;;;;;;5056484;28;20025;-81
2020/12/22 08:17:05;;;;;;;81.40;39.85;;;0.80;99.90;;;;;;5050885;28;20439;-81
2020/12/22 08:19:35;;;;;;;88.47;42.95;;;0.80;99.90;;;;;;5072293;28;20016;-82
2020/12/22 08:22:04;;;;;;;78.70;38.60;;;0.90;99.90;;;;;;5055113;28;20021;-82
2020/12/22 08:24:35;;;;;;;78.47;35.08;;;0.90;99.90;;;;;;5072516;28;20036;-82
2020/12/22 08:27:01;;;;;;;77.18;36.63;;;0.90;99.90;;;;;;5073077;28;20017;-82
2020/12/22 08:29:28;;;;;;;98.40;42.60;;;1.00;99.90;;;;;;5053944;28;20036;-82
2020/12/22 08:31:58;;;;;;;78.38;34.00;;;1.00;99.90;;;;;;5054862;28;20054;-82
2020/12/22 08:34:24;;;;;;;69.07;29.92;;;1.10;99.90;;;;;;5052832;28;20024;-82
2020/12/22 08:36:50;;;;;;;82.05;35.65;;;1.10;99.90;;;;;;5072890;28;20021;-82
2020/12/22 08:39:17;;;;;;;59.17;26.13;;;1.10;99.90;;;;;;5055755;28;20040;-82
2020/12/22 08:41:45;;;;;;;51.58;25.60;;;1.20;99.90;;;;;;5056226;28;20040;-82
2020/12/22 08:44:12;;;;;;;104.85;43.28;;;1.30;99.90;;;;;;5073504;28;20050;-82
2020/12/22 08:46:39;;;;;;;158.38;62.55;;;1.30;99.90;;;;;;5056142;28;20013;-82
2020/12/22 08:49:09;;;;;;;46.67;23.23;;;1.30;99.90;;;;;;5056108;28;20021;-81
2020/12/22 08:51:34;;;;;;;58.47;28.40;;;1.30;99.90;;;;;;5074000;28;20024;-82
2020/12/22 08:54:01;;;;;;;44.55;23.52;;;1.40;99.90;;;;;;5073876;28;20024;-82
2020/12/22 08:56:27;;;;;;;56.33;26.38;;;1.40;99.90;;;;;;5073275;28;20021;-82
2020/12/22 08:59:07;;;;;;;44.05;20.75;;;1.50;99.90;;;;;;5071914;28;20070;-82
2020/12/22 09:01:49;;;;;;;51.00;22.10;;;1.50;99.90;;;;;;5055113;28;20036;-81
2020/12/22 09:04:15;;;;;;;59.40;25.27;;;1.50;99.90;;;;;;5055768;28;20436;-81
2020/12/22 09:06:44;;;;;;;49.40;24.23;;;1.60;99.90;;;;;;5055978;28;20027;-81
2020/12/22 09:09:16;;;;;;;45.53;20.13;;;1.60;99.90;;;;;;5055802;28;20051;-81
2020/12/22 09:11:42;;;;;;;45.47;19.77;;;1.60;99.90;;;;;;5073431;28;20028;-82
2020/12/22 09:14:16;;;;;;;43.15;20.23;;;1.60;99.90;;;;;;5072586;28;20040;-82
2020/12/22 09:16:56;;;;;;;53.65;21.40;;;1.70;99.90;;;;;;5072194;28;20056;-83
2020/12/22 09:19:39;;;;;;;38.42;20.05;;;1.80;99.90;;;;;;5053637;28;20040;-82
2020/12/22 09:22:05;;;;;;;43.05;20.10;;;1.80;99.90;;;;;;5035607;28;20106;-81
2020/12/22 09:24:33;;;;;;;41.53;20.15;;;1.80;99.90;;;;;;5069965;28;20440;-82
2020/12/22 09:27:10;;;;;;;44.20;21.52;;;1.80;99.90;;;;;;5054286;28;20106;-82
2020/12/22 09:29:38;;;;;;;44.05;23.50;;;1.90;99.90;;;;;;5073405;28;20025;-84
2020/12/22 09:32:05;;;;;;;52.42;23.70;;;1.90;99.90;;;;;;5054803;28;20074;-82
2020/12/22 09:34:33;;;;;;;51.50;26.65;;;2.00;99.90;;;;;;5055009;28;20021;-83
2020/12/22 09:37:01;;;;;;;61.28;28.70;;;2.00;99.90;;;;;;5072335;28;20352;-82
2020/12/22 09:39:28;;;;;;;74.13;35.75;;;2.00;99.90;;;;;;5072423;28;20024;-82
2020/12/22 09:41:55;;;;;;;79.90;40.47;;;2.10;99.90;;;;;;5072405;28;20071;-83
2020/12/22 09:44:21;;;;;;;75.15;34.72;;;2.10;99.90;;;;;;5072079;28;20039;-83
2020/12/22 09:46:52;;;;;;;64.75;28.77;;;2.10;99.90;;;;;;5072985;28;20051;-83
2020/12/22 09:49:18;;;;;;;119.18;56.03;;;2.10;99.90;;;;;;5054996;28;20060;-83
2020/12/22 09:51:44;;;;;;;84.45;38.30;;;2.10;99.90;;;;;;5053926;28;20036;-82
2020/12/22 09:54:13;;;;;;;75.50;33.72;;;2.20;99.90;;;;;;5068272;28;20020;-82
2020/12/22 09:56:39;;;;;;;59.85;26.60;;;2.20;99.90;;;;;;5069833;28;20021;-82
2020/12/22 09:59:05;;;;;;;51.00;24.90;;;2.30;99.90;;;;;;5052767;28;20371;-82
2020/12/22 10:01:31;;;;;;;57.30;27.48;;;2.30;99.90;;;;;;5045707;28;20190;-82
2020/12/22 10:03:57;;;;;;;55.00;23.83;;;2.30;99.90;;;;;;5051395;28;20024;-83
2020/12/22 10:06:24;;;;;;;50.10;23.08;;;2.40;99.90;;;;;;5069900;28;20028;-82
2020/12/22 10:08:54;;;;;;;39.22;19.27;;;2.40;99.90;;;;;;5043552;28;20032;-82
2020/12/22 10:11:23;;;;;;;48.22;22.35;;;2.40;99.90;;;;;;5070839;28;20028;-80
2020/12/22 10:13:50;;;;;;;75.85;32.70;;;2.40;99.90;;;;;;5043047;28;20029;-79
2020/12/22 10:16:21;;;;;;;53.65;26.25;;;2.40;99.90;;;;;;5050710;28;20547;-82
2020/12/22 10:18:47;;;;;;;40.00;19.98;;;2.40;99.90;;;;;;5069162;28;20378;-81
2020/12/22 10:21:14;;;;;;;52.60;25.42;;;2.40;99.90;;;;;;5070964;28;20028;-81
2020/12/22 10:23:42;;;;;;;64.13;29.60;;;2.40;99.90;;;;;;5052407;28;20069;-80
2020/12/22 10:26:13;;;;;;;61.13;28.80;;;2.50;99.90;;;;;;5052777;28;20021;-81
2020/12/22 10:28:40;;;;;;;58.40;25.38;;;2.40;99.90;;;;;;5052320;28;20033;-81
2020/12/22 10:31:12;;;;;;;72.90;29.88;;;2.40;99.90;;;;;;5071023;28;20619;-81
2020/12/22 10:33:37;;;;;;;271.73;118.00;;;2.50;99.90;;;;;;5068032;28;20051;-80
2020/12/22 10:36:03;;;;;;;93.03;40.42;;;2.50;99.90;;;;;;5053064;28;20033;-80
2020/12/22 10:38:29;;;;;;;72.07;32.70;;;2.50;99.90;;;;;;5053539;28;20089;-81
2020/12/22 10:40:55;;;;;;;84.72;36.15;;;2.50;99.90;;;;;;5047938;28;20021;-81
2020/12/22 10:43:21;;;;;;;185.20;80.75;;;2.50;99.90;;;;;;5075744;28;20027;-81
2020/12/22 10:45:47;;;;;;;153.77;63.15;;;2.50;99.90;;;;;;5076418;28;20066;-80
2020/12/22 10:48:13;;;;;;;74.07;35.28;;;2.50;99.90;;;;;;5058333;28;20024;-80
2020/12/22 10:50:40;;;;;;;60.72;28.13;;;2.50;99.90;;;;;;5076375;28;20032;-80
2020/12/22 10:53:07;;;;;;;64.00;28.90;;;2.60;99.90;;;;;;5058357;28;20031;-81
2020/12/22 10:55:34;;;;;;;111.95;47.50;;;2.60;99.90;;;;;;5075676;28;20036;-81
2020/12/22 10:57:59;;;;;;;65.70;28.98;;;2.60;99.90;;;;;;5076159;28;20641;-80
2020/12/22 11:00:26;;;;;;;59.50;26.42;;;2.60;99.90;;;;;;5076171;28;20470;-80
2020/12/22 11:02:58;;;;;;;140.90;57.72;;;2.60;99.90;;;;;;5058093;28;20021;-80
2020/12/22 11:08:09;;;;;;;79.80;33.95;;;2.60;99.90;;;;;;5076038;28;19943;-80
2020/12/22 11:10:35;;;;;;;70.05;27.45;;;2.60;99.90;;;;;;5075410;28;20028;-80
2020/12/22 11:13:01;;;;;;;75.00;34.28;;;2.60;99.90;;;;;;5075325;28;20024;-80
2020/12/22 11:15:27;;;;;;;126.93;54.88;;;2.70;99.90;;;;;;5075631;28;20036;-79
2020/12/22 11:17:52;;;;;;;108.65;41.03;;;2.70;99.90;;;;;;5075750;28;20048;-80
2020/12/22 11:20:18;;;;;;;91.68;39.83;;;2.70;99.90;;;;;;5075615;28;20024;-80
2020/12/22 11:22:46;;;;;;;93.50;37.35;;;2.70;99.90;;;;;;5075669;28;20066;-80
2020/12/22 11:25:11;;;;;;;78.57;34.25;;;2.70;99.90;;;;;;5075082;28;20028;-80
2020/12/22 11:27:37;;;;;;;155.77;64.07;;;2.70;99.90;;;;;;5075007;28;20021;-79
2020/12/22 11:30:04;;;;;;;107.03;44.05;;;2.70;99.90;;;;;;5074089;28;20086;-80
2020/12/22 11:32:29;;;;;;;81.72;34.92;;;2.70;99.90;;;;;;5073891;28;20085;-79
2020/12/22 11:34:55;;;;;;;74.55;32.88;;;2.70;99.90;;;;;;5056998;28;20115;-80
2020/12/22 11:37:21;;;;;;;126.57;56.88;;;2.70;99.90;;;;;;5075203;28;20032;-80
2020/12/22 11:39:46;;;;;;;108.75;47.83;;;2.70;99.90;;;;;;5073855;28;20033;-80
2020/12/22 11:42:12;;;;;;;112.22;47.60;;;2.80;99.90;;;;;;5056521;28;20082;-79
2020/12/22 11:44:38;;;;;;;87.65;39.60;;;2.80;99.90;;;;;;5057378;28;20032;-80
2020/12/22 11:47:03;;;;;;;86.50;41.90;;;2.80;99.90;;;;;;5057375;28;20093;-80
2020/12/22 11:49:29;;;;;;;88.85;41.72;;;2.80;99.90;;;;;;5056795;28;20024;-80
2020/12/22 11:51:56;;;;;;;106.80;45.78;;;2.90;99.90;;;;;;5075242;28;20470;-82
2020/12/22 11:54:23;;;;;;;102.80;46.95;;;2.90;99.90;;;;;;5056625;28;20393;-81
2020/12/22 11:56:49;;;;;;;90.15;42.00;;;2.90;99.90;;;;;;5074475;28;20074;-81
2020/12/22 11:59:18;;;;;;;96.45;43.95;;;2.90;99.90;;;;;;5075101;28;20519;-81
2020/12/22 12:01:47;;;;;;;95.38;44.20;;;2.90;99.90;;;;;;5057038;28;20020;-80
2020/12/22 12:04:13;;;;;;;94.78;44.53;;;2.90;99.90;;;;;;5056934;28;20068;-80
2020/12/22 12:06:45;;;;;;;92.93;41.20;;;2.90;99.90;;;;;;5074984;28;20052;-80
2020/12/22 12:09:10;;;;;;;105.30;45.43;;;3.00;99.90;;;;;;5056457;28;20028;-80
2020/12/22 12:11:36;;;;;;;95.97;44.72;;;2.90;99.90;;;;;;5056852;28;20675;-80
2020/12/22 12:14:02;;;;;;;92.22;42.25;;;3.00;99.90;;;;;;5074874;28;20032;-79
2020/12/22 12:16:27;;;;;;;92.82;44.17;;;3.00;99.90;;;;;;5056811;28;20062;-80
2020/12/22 12:18:53;;;;;;;104.85;44.47;;;3.00;99.90;;;;;;5074775;28;20025;-80
2020/12/22 12:21:19;;;;;;;89.75;43.65;;;3.00;99.90;;;;;;5056789;28;20016;-80
2020/12/22 12:23:45;;;;;;;102.70;47.13;;;3.00;99.90;;;;;;5065567;28;20070;-80
2020/12/22 12:26:11;;;;;;;103.03;47.25;;;3.00;99.90;;;;;;5036695;28;20360;-80
2020/12/22 12:28:38;;;;;;;102.43;49.97;;;3.00;99.90;;;;;;5054366;28;20021;-80
2020/12/22 12:31:04;;;;;;;97.43;45.05;;;3.00;99.90;;;;;;5035869;28;20479;-80
2020/12/22 12:33:30;;;;;;;96.93;48.40;;;3.00;99.90;;;;;;5053708;28;20036;-80
2020/12/22 12:35:55;;;;;;;104.20;46.80;;;3.00;99.90;;;;;;5053483;28;20630;-80